sensor_id;sensor_type;location;lat;lon;timestamp;pressure;altitude;pressure_sealevel;temperature;humidity
63395;BME280;49531;-34.520;150.798;2023-07-16T00:01:57;101891.50;;;18.40;47.93
63395;BME280;49531;-34.520;150.798;2023-07-16T00:04:25;101908.31;;;18.49;48.01
63395;BME280;49531;-34.520;150.798;2023-07-16T00:06:52;101910.41;;;18.47;48.01
63395;BME280;49531;-34.520;150.798;2023-07-16T00:09:19;101917.47;;;18.48;48.51
63395;BME280;49531;-34.520;150.798;2023-07-16T00:11:46;101897.97;;;18.39;48.18
63395;BME280;49531;-34.520;150.798;2023-07-16T00:14:13;101894.19;;;18.40;47.98
63395;BME280;49531;-34.520;150.798;2023-07-16T00:16:41;101905.59;;;18.49;48.49
63395;BME280;49531;-34.520;150.798;2023-07-16T00:19:10;101904.50;;;18.56;48.80
63395;BME280;49531;-34.520;150.798;2023-07-16T00:21:40;101900.78;;;18.51;48.32
63395;BME280;49531;-34.520;150.798;2023-07-16T00:24:08;101886.69;;;18.42;48.02
63395;BME280;49531;-34.520;150.798;2023-07-16T00:26:35;101893.75;;;18.43;47.94
63395;BME280;49531;-34.520;150.798;2023-07-16T00:29:02;101907.88;;;18.52;48.10
63395;BME280;49531;-34.520;150.798;2023-07-16T00:31:30;101889.78;;;18.46;48.00
63395;BME280;49531;-34.520;150.798;2023-07-16T00:33:57;101907.44;;;18.55;48.00
63395;BME280;49531;-34.520;150.798;2023-07-16T00:36:25;101910.56;;;18.52;47.78
63395;BME280;49531;-34.520;150.798;2023-07-16T00:38:52;101914.09;;;18.52;48.01
63395;BME280;49531;-34.520;150.798;2023-07-16T00:41:19;101899.78;;;18.45;48.37
63395;BME280;49531;-34.520;150.798;2023-07-16T00:43:46;101919.91;;;18.56;48.19
63395;BME280;49531;-34.520;150.798;2023-07-16T00:46:13;101878.88;;;18.34;48.20
63395;BME280;49531;-34.520;150.798;2023-07-16T00:48:42;101905.34;;;18.57;48.16
63395;BME280;49531;-34.520;150.798;2023-07-16T00:51:10;101907.81;;;18.58;47.93
63395;BME280;49531;-34.520;150.798;2023-07-16T00:53:37;101896.66;;;18.48;47.97
63395;BME280;49531;-34.520;150.798;2023-07-16T00:56:06;101898.47;;;18.61;47.66
63395;BME280;49531;-34.520;150.798;2023-07-16T00:58:34;101893.25;;;18.59;52.23
63395;BME280;49531;-34.520;150.798;2023-07-16T01:01:01;101895.97;;;18.59;52.59
63395;BME280;49531;-34.520;150.798;2023-07-16T01:03:28;101883.47;;;18.58;53.46
63395;BME280;49531;-34.520;150.798;2023-07-16T01:06:11;101866.72;;;18.43;53.99
63395;BME280;49531;-34.520;150.798;2023-07-16T01:08:56;101887.66;;;18.54;54.40
63395;BME280;49531;-34.520;150.798;2023-07-16T01:11:25;101893.25;;;18.66;54.65
63395;BME280;49531;-34.520;150.798;2023-07-16T01:13:54;101873.69;;;18.57;54.29
63395;BME280;49531;-34.520;150.798;2023-07-16T01:16:24;101894.25;;;18.72;53.96
63395;BME280;49531;-34.520;150.798;2023-07-16T01:18:52;101901.09;;;18.74;53.61
63395;BME280;49531;-34.520;150.798;2023-07-16T01:21:20;101884.03;;;18.74;53.01
63395;BME280;49531;-34.520;150.798;2023-07-16T01:24:04;101896.81;;;18.85;53.62
63395;BME280;49531;-34.520;150.798;2023-07-16T01:26:53;101884.47;;;18.95;53.11
63395;BME280;49531;-34.520;150.798;2023-07-16T01:29:31;101872.81;;;18.95;53.18
63395;BME280;49531;-34.520;150.798;2023-07-16T01:32:01;101868.38;;;19.01;53.39
63395;BME280;49531;-34.520;150.798;2023-07-16T01:34:32;101862.56;;;18.97;53.14
63395;BME280;49531;-34.520;150.798;2023-07-16T01:37:01;101851.41;;;18.87;52.89
63395;BME280;49531;-34.520;150.798;2023-07-16T01:39:29;101863.72;;;19.08;53.54
63395;BME280;49531;-34.520;150.798;2023-07-16T01:41:56;101839.00;;;18.79;53.31
63395;BME280;49531;-34.520;150.798;2023-07-16T01:44:23;101879.59;;;19.04;54.13
63395;BME280;49531;-34.520;150.798;2023-07-16T01:47:08;101874.84;;;18.99;54.07
63395;BME280;49531;-34.520;150.798;2023-07-16T01:49:36;101856.81;;;18.87;54.21
63395;BME280;49531;-34.520;150.798;2023-07-16T01:52:04;101858.88;;;18.91;54.47
63395;BME280;49531;-34.520;150.798;2023-07-16T01:54:32;101858.53;;;18.81;54.73
63395;BME280;49531;-34.520;150.798;2023-07-16T01:56:59;101852.28;;;18.81;54.25
63395;BME280;49531;-34.520;150.798;2023-07-16T01:59:27;101863.91;;;18.88;53.20
63395;BME280;49531;-34.520;150.798;2023-07-16T02:01:54;101852.63;;;18.91;54.40
63395;BME280;49531;-34.520;150.798;2023-07-16T02:04:21;101853.41;;;18.98;53.60
63395;BME280;49531;-34.520;150.798;2023-07-16T02:06:48;101843.88;;;19.14;53.09
63395;BME280;49531;-34.520;150.798;2023-07-16T02:09:15;101847.88;;;19.11;53.98
63395;BME280;49531;-34.520;150.798;2023-07-16T02:11:42;101836.06;;;19.06;53.25
63395;BME280;49531;-34.520;150.798;2023-07-16T02:14:09;101840.97;;;19.15;53.19
63395;BME280;49531;-34.520;150.798;2023-07-16T02:16:36;101833.66;;;19.16;53.03
63395;BME280;49531;-34.520;150.798;2023-07-16T02:19:04;101841.47;;;19.24;52.64
63395;BME280;49531;-34.520;150.798;2023-07-16T02:21:31;101832.22;;;19.13;52.75
63395;BME280;49531;-34.520;150.798;2023-07-16T02:23:58;101833.34;;;19.06;52.72
63395;BME280;49531;-34.520;150.798;2023-07-16T02:26:26;101825.88;;;19.19;53.32
63395;BME280;49531;-34.520;150.798;2023-07-16T02:28:53;101826.28;;;19.23;52.98
63395;BME280;49531;-34.520;150.798;2023-07-16T02:31:20;101814.75;;;19.27;52.97
63395;BME280;49531;-34.520;150.798;2023-07-16T02:33:47;101817.41;;;19.34;52.57
63395;BME280;49531;-34.520;150.798;2023-07-16T02:36:14;101821.16;;;19.33;52.76
63395;BME280;49531;-34.520;150.798;2023-07-16T02:38:42;101816.78;;;19.32;52.63
63395;BME280;49531;-34.520;150.798;2023-07-16T02:41:09;101801.81;;;19.29;53.19
63395;BME280;49531;-34.520;150.798;2023-07-16T02:43:36;101817.34;;;19.41;52.81
63395;BME280;49531;-34.520;150.798;2023-07-16T02:46:03;101824.09;;;19.50;52.66
63395;BME280;49531;-34.520;150.798;2023-07-16T02:48:30;101810.41;;;19.45;52.73
63395;BME280;49531;-34.520;150.798;2023-07-16T02:50:57;101818.41;;;19.58;51.71
63395;BME280;49531;-34.520;150.798;2023-07-16T02:53:25;101802.13;;;19.40;51.87
63395;BME280;49531;-34.520;150.798;2023-07-16T02:55:52;101813.44;;;19.55;52.02
63395;BME280;49531;-34.520;150.798;2023-07-16T02:58:19;101801.06;;;19.41;52.71
63395;BME280;49531;-34.520;150.798;2023-07-16T03:00:47;101789.63;;;19.39;52.02
63395;BME280;49531;-34.520;150.798;2023-07-16T03:03:14;101797.53;;;19.40;51.82
63395;BME280;49531;-34.520;150.798;2023-07-16T03:05:41;101804.88;;;19.58;51.79
63395;BME280;49531;-34.520;150.798;2023-07-16T03:08:08;101805.56;;;19.53;51.87
63395;BME280;49531;-34.520;150.798;2023-07-16T03:10:35;101809.31;;;19.52;52.56
63395;BME280;49531;-34.520;150.798;2023-07-16T03:13:02;101800.41;;;19.45;52.57
63395;BME280;49531;-34.520;150.798;2023-07-16T03:15:29;101802.88;;;19.47;52.34
63395;BME280;49531;-34.520;150.798;2023-07-16T03:17:56;101810.38;;;19.51;52.06
63395;BME280;49531;-34.520;150.798;2023-07-16T03:20:23;101802.22;;;19.51;51.93
63395;BME280;49531;-34.520;150.798;2023-07-16T03:22:50;101806.75;;;19.57;51.95
63395;BME280;49531;-34.520;150.798;2023-07-16T03:25:18;101799.72;;;19.68;51.43
63395;BME280;49531;-34.520;150.798;2023-07-16T03:27:45;101803.41;;;19.74;51.14
63395;BME280;49531;-34.520;150.798;2023-07-16T03:30:12;101802.41;;;19.68;50.68
63395;BME280;49531;-34.520;150.798;2023-07-16T03:32:39;101795.78;;;19.64;50.65
63395;BME280;49531;-34.520;150.798;2023-07-16T03:35:07;101784.66;;;19.72;50.65
63395;BME280;49531;-34.520;150.798;2023-07-16T03:37:34;101794.63;;;19.90;50.97
63395;BME280;49531;-34.520;150.798;2023-07-16T03:40:14;101799.09;;;19.84;50.64
63395;BME280;49531;-34.520;150.798;2023-07-16T03:42:42;101793.53;;;19.79;50.39
63395;BME280;49531;-34.520;150.798;2023-07-16T03:45:11;101791.78;;;19.85;50.75
63395;BME280;49531;-34.520;150.798;2023-07-16T03:47:38;101782.53;;;19.74;51.16
63395;BME280;49531;-34.520;150.798;2023-07-16T03:50:05;101795.53;;;19.84;51.21
63395;BME280;49531;-34.520;150.798;2023-07-16T03:52:32;101777.41;;;19.84;50.99
63395;BME280;49531;-34.520;150.798;2023-07-16T03:55:00;101782.31;;;19.76;50.79
63395;BME280;49531;-34.520;150.798;2023-07-16T03:57:28;101795.78;;;19.82;51.27
63395;BME280;49531;-34.520;150.798;2023-07-16T03:59:56;101780.72;;;19.68;52.08
63395;BME280;49531;-34.520;150.798;2023-07-16T04:02:24;101777.19;;;19.68;51.83
63395;BME280;49531;-34.520;150.798;2023-07-16T04:04:51;101766.34;;;19.68;51.89
63395;BME280;49531;-34.520;150.798;2023-07-16T04:07:19;101779.97;;;19.79;51.84
63395;BME280;49531;-34.520;150.798;2023-07-16T04:09:46;101785.00;;;19.76;52.04
63395;BME280;49531;-34.520;150.798;2023-07-16T04:12:13;101772.97;;;19.72;51.89
63395;BME280;49531;-34.520;150.798;2023-07-16T04:14:40;101779.69;;;19.69;52.77
63395;BME280;49531;-34.520;150.798;2023-07-16T04:17:08;101798.66;;;19.69;52.45
63395;BME280;49531;-34.520;150.798;2023-07-16T04:19:35;101776.78;;;19.52;52.91
63395;BME280;49531;-34.520;150.798;2023-07-16T04:22:02;101790.13;;;19.54;53.39
63395;BME280;49531;-34.520;150.798;2023-07-16T04:24:29;101791.41;;;19.51;52.84
63395;BME280;49531;-34.520;150.798;2023-07-16T04:26:58;101788.88;;;19.50;53.57
63395;BME280;49531;-34.520;150.798;2023-07-16T04:29:25;101782.47;;;19.44;53.20
63395;BME280;49531;-34.520;150.798;2023-07-16T04:31:52;101795.19;;;19.62;52.95
63395;BME280;49531;-34.520;150.798;2023-07-16T04:34:20;101785.53;;;19.54;53.66
63395;BME280;49531;-34.520;150.798;2023-07-16T04:36:47;101795.56;;;19.65;52.99
63395;BME280;49531;-34.520;150.798;2023-07-16T04:39:14;101769.88;;;19.56;53.53
63395;BME280;49531;-34.520;150.798;2023-07-16T04:41:41;101787.19;;;19.55;54.00
63395;BME280;49531;-34.520;150.798;2023-07-16T04:44:08;101794.75;;;19.65;54.34
63395;BME280;49531;-34.520;150.798;2023-07-16T04:46:35;101791.22;;;19.46;54.17
63395;BME280;49531;-34.520;150.798;2023-07-16T04:49:04;101804.25;;;19.56;54.78
63395;BME280;49531;-34.520;150.798;2023-07-16T04:51:32;101795.53;;;19.54;54.51
63395;BME280;49531;-34.520;150.798;2023-07-16T04:53:59;101803.06;;;19.52;54.54
63395;BME280;49531;-34.520;150.798;2023-07-16T04:56:26;101788.72;;;19.45;54.98
63395;BME280;49531;-34.520;150.798;2023-07-16T04:58:54;101814.97;;;19.51;54.84
63395;BME280;49531;-34.520;150.798;2023-07-16T05:01:21;101817.25;;;19.47;54.66
63395;BME280;49531;-34.520;150.798;2023-07-16T05:03:48;101813.56;;;19.42;54.71
63395;BME280;49531;-34.520;150.798;2023-07-16T05:06:16;101822.31;;;19.44;54.50
63395;BME280;49531;-34.520;150.798;2023-07-16T05:08:43;101813.28;;;19.50;54.42
63395;BME280;49531;-34.520;150.798;2023-07-16T05:11:12;101803.41;;;19.37;54.83
63395;BME280;49531;-34.520;150.798;2023-07-16T05:13:39;101826.66;;;19.45;55.21
63395;BME280;49531;-34.520;150.798;2023-07-16T05:16:06;101820.50;;;19.38;55.36
63395;BME280;49531;-34.520;150.798;2023-07-16T05:18:33;101821.63;;;19.30;55.42
63395;BME280;49531;-34.520;150.798;2023-07-16T05:21:00;101835.91;;;19.37;55.12
63395;BME280;49531;-34.520;150.798;2023-07-16T05:23:27;101837.28;;;19.46;54.80
63395;BME280;49531;-34.520;150.798;2023-07-16T05:25:54;101833.22;;;19.37;54.85
63395;BME280;49531;-34.520;150.798;2023-07-16T05:28:22;101833.28;;;19.30;55.28
63395;BME280;49531;-34.520;150.798;2023-07-16T05:30:59;101847.28;;;19.27;55.24
63395;BME280;49531;-34.520;150.798;2023-07-16T05:33:26;101839.69;;;19.36;55.01
63395;BME280;49531;-34.520;150.798;2023-07-16T05:35:53;101842.53;;;19.41;54.85
63395;BME280;49531;-34.520;150.798;2023-07-16T05:38:21;101845.47;;;19.40;54.76
63395;BME280;49531;-34.520;150.798;2023-07-16T05:40:49;101837.72;;;19.25;55.07
63395;BME280;49531;-34.520;150.798;2023-07-16T05:43:16;101856.38;;;19.33;54.82
63395;BME280;49531;-34.520;150.798;2023-07-16T05:45:43;101839.97;;;19.28;54.95
63395;BME280;49531;-34.520;150.798;2023-07-16T05:48:10;101835.25;;;19.42;54.42
63395;BME280;49531;-34.520;150.798;2023-07-16T05:50:38;101826.50;;;19.40;53.91
63395;BME280;49531;-34.520;150.798;2023-07-16T05:53:05;101838.09;;;19.28;55.06
63395;BME280;49531;-34.520;150.798;2023-07-16T05:55:32;101846.97;;;19.17;55.04
63395;BME280;49531;-34.520;150.798;2023-07-16T05:57:59;101858.03;;;19.16;55.64
63395;BME280;49531;-34.520;150.798;2023-07-16T06:00:26;101830.41;;;19.07;55.59
63395;BME280;49531;-34.520;150.798;2023-07-16T06:02:53;101852.28;;;19.06;55.33
63395;BME280;49531;-34.520;150.798;2023-07-16T06:05:22;101842.06;;;19.08;55.49
63395;BME280;49531;-34.520;150.798;2023-07-16T06:07:50;101840.25;;;19.02;55.07
63395;BME280;49531;-34.520;150.798;2023-07-16T06:10:18;101845.59;;;19.08;55.03
63395;BME280;49531;-34.520;150.798;2023-07-16T06:12:45;101854.50;;;19.15;54.94
63395;BME280;49531;-34.520;150.798;2023-07-16T06:15:12;101851.91;;;19.20;54.80
63395;BME280;49531;-34.520;150.798;2023-07-16T06:17:39;101844.13;;;19.12;55.24
63395;BME280;49531;-34.520;150.798;2023-07-16T06:20:06;101843.94;;;19.07;55.28
63395;BME280;49531;-34.520;150.798;2023-07-16T06:22:34;101836.88;;;19.06;54.96
63395;BME280;49531;-34.520;150.798;2023-07-16T06:25:01;101853.91;;;19.13;55.11
63395;BME280;49531;-34.520;150.798;2023-07-16T06:27:28;101850.75;;;19.16;54.94
63395;BME280;49531;-34.520;150.798;2023-07-16T06:29:56;101846.81;;;19.12;54.49
63395;BME280;49531;-34.520;150.798;2023-07-16T06:32:23;101833.94;;;19.08;54.53
63395;BME280;49531;-34.520;150.798;2023-07-16T06:34:50;101853.81;;;19.20;54.32
63395;BME280;49531;-34.520;150.798;2023-07-16T06:37:17;101837.88;;;19.12;54.63
63395;BME280;49531;-34.520;150.798;2023-07-16T06:39:44;101859.59;;;19.23;54.05
63395;BME280;49531;-34.520;150.798;2023-07-16T06:42:12;101866.06;;;19.22;53.84
63395;BME280;49531;-34.520;150.798;2023-07-16T06:44:39;101866.91;;;19.23;54.25
63395;BME280;49531;-34.520;150.798;2023-07-16T06:47:06;101874.81;;;19.24;53.72
63395;BME280;49531;-34.520;150.798;2023-07-16T06:49:33;101855.16;;;19.11;53.81
63395;BME280;49531;-34.520;150.798;2023-07-16T06:52:01;101881.38;;;19.35;53.54
63395;BME280;49531;-34.520;150.798;2023-07-16T06:54:28;101878.72;;;19.28;54.70
63395;BME280;49531;-34.520;150.798;2023-07-16T06:56:55;101879.84;;;19.21;54.42
63395;BME280;49531;-34.520;150.798;2023-07-16T06:59:22;101873.47;;;19.15;54.87
63395;BME280;49531;-34.520;150.798;2023-07-16T07:01:50;101881.97;;;19.37;54.93
63395;BME280;49531;-34.520;150.798;2023-07-16T07:04:17;101893.41;;;19.39;54.68
63395;BME280;49531;-34.520;150.798;2023-07-16T07:06:45;101893.41;;;19.39;53.26
63395;BME280;49531;-34.520;150.798;2023-07-16T07:09:12;101891.00;;;19.31;53.03
63395;BME280;49531;-34.520;150.798;2023-07-16T07:11:39;101878.56;;;19.23;53.23
63395;BME280;49531;-34.520;150.798;2023-07-16T07:14:06;101903.22;;;19.40;52.89
63395;BME280;49531;-34.520;150.798;2023-07-16T07:16:33;101891.75;;;19.38;53.04
63395;BME280;49531;-34.520;150.798;2023-07-16T07:19:00;101906.53;;;19.42;52.92
63395;BME280;49531;-34.520;150.798;2023-07-16T07:21:28;101900.44;;;19.47;52.70
63395;BME280;49531;-34.520;150.798;2023-07-16T07:23:55;101909.56;;;19.52;52.70
63395;BME280;49531;-34.520;150.798;2023-07-16T07:26:23;101907.69;;;19.53;52.62
63395;BME280;49531;-34.520;150.798;2023-07-16T07:28:50;101915.38;;;19.56;52.35
63395;BME280;49531;-34.520;150.798;2023-07-16T07:31:17;101913.28;;;19.58;52.40
63395;BME280;49531;-34.520;150.798;2023-07-16T07:33:44;101900.44;;;19.47;52.44
63395;BME280;49531;-34.520;150.798;2023-07-16T07:36:12;101917.94;;;19.51;52.20
63395;BME280;49531;-34.520;150.798;2023-07-16T07:38:39;101909.56;;;19.52;52.33
63395;BME280;49531;-34.520;150.798;2023-07-16T07:41:06;101909.81;;;19.51;52.37
63395;BME280;49531;-34.520;150.798;2023-07-16T07:43:34;101931.53;;;19.62;52.18
63395;BME280;49531;-34.520;150.798;2023-07-16T07:46:01;101916.06;;;19.51;52.28
63395;BME280;49531;-34.520;150.798;2023-07-16T07:48:31;101932.81;;;19.60;52.13
63395;BME280;49531;-34.520;150.798;2023-07-16T07:50:58;101940.38;;;19.58;52.04
63395;BME280;49531;-34.520;150.798;2023-07-16T07:53:25;101941.44;;;19.57;52.35
63395;BME280;49531;-34.520;150.798;2023-07-16T07:55:53;101929.97;;;19.55;51.96
63395;BME280;49531;-34.520;150.798;2023-07-16T07:58:21;101947.47;;;19.59;52.22
63395;BME280;49531;-34.520;150.798;2023-07-16T08:00:48;101934.81;;;19.53;52.19
63395;BME280;49531;-34.520;150.798;2023-07-16T08:03:15;101958.44;;;19.64;51.87
63395;BME280;49531;-34.520;150.798;2023-07-16T08:05:42;101951.94;;;19.65;51.80
63395;BME280;49531;-34.520;150.798;2023-07-16T08:08:10;101946.38;;;19.60;51.91
63395;BME280;49531;-34.520;150.798;2023-07-16T08:10:37;101947.47;;;19.59;51.75
63395;BME280;49531;-34.520;150.798;2023-07-16T08:13:04;101961.13;;;19.64;51.75
63395;BME280;49531;-34.520;150.798;2023-07-16T08:15:31;101963.03;;;19.63;51.62
63395;BME280;49531;-34.520;150.798;2023-07-16T08:17:58;101963.03;;;19.63;51.76
63395;BME280;49531;-34.520;150.798;2023-07-16T08:20:26;101970.72;;;19.67;51.56
63395;BME280;49531;-34.520;150.798;2023-07-16T08:22:53;101963.25;;;19.62;51.53
63395;BME280;49531;-34.520;150.798;2023-07-16T08:25:20;101970.09;;;19.64;51.57
63395;BME280;49531;-34.520;150.798;2023-07-16T08:27:48;101971.53;;;19.67;51.50
63395;BME280;49531;-34.520;150.798;2023-07-16T08:30:15;101965.81;;;19.57;51.39
63395;BME280;49531;-34.520;150.798;2023-07-16T08:32:42;101984.47;;;19.65;51.52
63395;BME280;49531;-34.520;150.798;2023-07-16T08:35:10;101960.84;;;19.54;51.63
63395;BME280;49531;-34.520;150.798;2023-07-16T08:37:44;101968.53;;;19.57;51.41
63395;BME280;49531;-34.520;150.798;2023-07-16T08:40:12;101981.38;;;19.61;51.33
63395;BME280;49531;-34.520;150.798;2023-07-16T08:42:40;101980.34;;;19.62;51.32
63395;BME280;49531;-34.520;150.798;2023-07-16T08:45:10;101983.28;;;19.61;51.36
63395;BME280;49531;-34.520;150.798;2023-07-16T08:47:37;101983.34;;;19.54;51.26
63395;BME280;49531;-34.520;150.798;2023-07-16T08:50:04;102000.84;;;19.58;51.30
63395;BME280;49531;-34.520;150.798;2023-07-16T08:52:32;101994.59;;;19.58;51.33
63395;BME280;49531;-34.520;150.798;2023-07-16T08:54:59;101992.31;;;19.55;51.11
63395;BME280;49531;-34.520;150.798;2023-07-16T08:57:29;101997.13;;;19.53;51.17
63395;BME280;49531;-34.520;150.798;2023-07-16T08:59:57;102011.69;;;19.58;51.04
63395;BME280;49531;-34.520;150.798;2023-07-16T09:02:25;102016.84;;;19.60;50.93
63395;BME280;49531;-34.520;150.798;2023-07-16T09:04:52;102003.78;;;19.57;51.09
63395;BME280;49531;-34.520;150.798;2023-07-16T09:07:21;102022.88;;;19.62;50.89
63395;BME280;49531;-34.520;150.798;2023-07-16T09:09:57;102029.56;;;19.59;50.96
63395;BME280;49531;-34.520;150.798;2023-07-16T09:12:25;102020.91;;;19.51;50.68
63395;BME280;49531;-34.520;150.798;2023-07-16T09:14:53;102032.53;;;19.58;50.86
63395;BME280;49531;-34.520;150.798;2023-07-16T09:17:22;102013.41;;;19.46;50.72
63395;BME280;49531;-34.520;150.798;2023-07-16T09:19:51;102021.09;;;19.49;50.64
63395;BME280;49531;-34.520;150.798;2023-07-16T09:22:22;102032.53;;;19.58;50.80
63395;BME280;49531;-34.520;150.798;2023-07-16T09:24:49;102031.91;;;19.56;50.69
63395;BME280;49531;-34.520;150.798;2023-07-16T09:27:16;102013.03;;;19.43;51.49
63395;BME280;49531;-34.520;150.798;2023-07-16T09:29:43;102018.88;;;19.40;52.38
63395;BME280;49531;-34.520;150.798;2023-07-16T09:32:10;102017.06;;;19.33;51.20
63395;BME280;49531;-34.520;150.798;2023-07-16T09:34:41;102033.22;;;19.47;50.91
63395;BME280;49531;-34.520;150.798;2023-07-16T09:37:08;102005.22;;;19.28;50.92
63395;BME280;49531;-34.520;150.798;2023-07-16T09:39:38;102015.56;;;19.38;50.79
63395;BME280;49531;-34.520;150.798;2023-07-16T09:42:09;102013.97;;;19.30;50.57
63395;BME280;49531;-34.520;150.798;2023-07-16T09:44:39;102013.97;;;19.30;50.49
63395;BME280;49531;-34.520;150.798;2023-07-16T09:47:09;102047.38;;;19.49;50.65
63395;BME280;49531;-34.520;150.798;2023-07-16T09:49:36;102038.03;;;19.45;50.52
63395;BME280;49531;-34.520;150.798;2023-07-16T09:52:04;102029.13;;;19.38;50.43
63395;BME280;49531;-34.520;150.798;2023-07-16T09:54:32;102034.31;;;19.39;50.61
63395;BME280;49531;-34.520;150.798;2023-07-16T09:57:05;102033.69;;;19.37;50.59
63395;BME280;49531;-34.520;150.798;2023-07-16T09:59:34;102035.13;;;19.40;50.56
63395;BME280;49531;-34.520;150.798;2023-07-16T10:02:01;102043.44;;;19.45;50.53
63395;BME280;49531;-34.520;150.798;2023-07-16T10:04:38;102044.50;;;19.44;50.55
63395;BME280;49531;-34.520;150.798;2023-07-16T10:07:23;102030.22;;;19.30;50.64
63395;BME280;49531;-34.520;150.798;2023-07-16T10:09:55;102038.69;;;19.40;50.53
63395;BME280;49531;-34.520;150.798;2023-07-16T10:12:25;102035.56;;;19.37;50.60
63395;BME280;49531;-34.520;150.798;2023-07-16T10:14:54;102007.97;;;19.21;50.61
63395;BME280;49531;-34.520;150.798;2023-07-16T10:17:25;102022.31;;;19.28;50.62
63395;BME280;49531;-34.520;150.798;2023-07-16T10:20:02;102037.69;;;19.35;50.54
63395;BME280;49531;-34.520;150.798;2023-07-16T10:22:38;102025.44;;;19.25;50.49
63395;BME280;49531;-34.520;150.798;2023-07-16T10:25:21;102048.50;;;19.35;50.59
63395;BME280;49531;-34.520;150.798;2023-07-16T10:27:52;102024.84;;;19.23;50.44
63395;BME280;49531;-34.520;150.798;2023-07-16T10:30:21;102020.53;;;19.16;50.55
63395;BME280;49531;-34.520;150.798;2023-07-16T10:32:54;102047.50;;;19.29;50.60
63395;BME280;49531;-34.520;150.798;2023-07-16T10:35:21;102043.16;;;19.28;50.78
63395;BME280;49531;-34.520;150.798;2023-07-16T10:37:48;102047.72;;;19.27;50.50
63395;BME280;49531;-34.520;150.798;2023-07-16T10:40:15;102018.28;;;19.13;50.70
63395;BME280;49531;-34.520;150.798;2023-07-16T10:42:46;101970.81;;;18.79;50.62
63395;BME280;49531;-34.520;150.798;2023-07-16T10:45:22;102022.06;;;19.05;50.68
63395;BME280;49531;-34.520;150.798;2023-07-16T10:47:54;102040.34;;;19.16;50.68
63395;BME280;49531;-34.520;150.798;2023-07-16T10:50:21;102012.69;;;19.08;50.72
63395;BME280;49531;-34.520;150.798;2023-07-16T10:52:53;102039.88;;;19.19;50.67
63395;BME280;49531;-34.520;150.798;2023-07-16T10:55:21;102021.41;;;19.10;50.54
63395;BME280;49531;-34.520;150.798;2023-07-16T10:57:58;102016.66;;;19.05;50.56
63395;BME280;49531;-34.520;150.798;2023-07-16T11:00:30;102016.03;;;19.03;50.42
63395;BME280;49531;-34.520;150.798;2023-07-16T11:03:00;102046.13;;;19.20;50.57
63395;BME280;49531;-34.520;150.798;2023-07-16T11:05:29;102027.06;;;19.08;50.47
63395;BME280;49531;-34.520;150.798;2023-07-16T11:07:59;102014.81;;;18.99;50.53
63395;BME280;49531;-34.520;150.798;2023-07-16T11:10:31;102031.69;;;19.01;50.71
63395;BME280;49531;-34.520;150.798;2023-07-16T11:12:59;102044.13;;;19.09;50.47
63395;BME280;49531;-34.520;150.798;2023-07-16T11:15:31;102022.38;;;18.90;50.52
63395;BME280;49531;-34.520;150.798;2023-07-16T11:18:04;102034.22;;;18.96;50.52
63395;BME280;49531;-34.520;150.798;2023-07-16T11:20:31;102011.75;;;18.89;50.54
63395;BME280;49531;-34.520;150.798;2023-07-16T11:23:00;102043.34;;;19.02;50.53
63395;BME280;49531;-34.520;150.798;2023-07-16T11:25:30;102044.16;;;19.02;50.51
63395;BME280;49531;-34.520;150.798;2023-07-16T11:28:15;102046.22;;;19.07;50.39
63395;BME280;49531;-34.520;150.798;2023-07-16T11:30:42;102050.81;;;19.06;50.47
63395;BME280;49531;-34.520;150.798;2023-07-16T11:33:18;102047.50;;;19.04;50.28
63395;BME280;49531;-34.520;150.798;2023-07-16T11:35:48;102033.38;;;18.95;50.39
63395;BME280;49531;-34.520;150.798;2023-07-16T11:38:21;102047.50;;;19.04;50.30
63395;BME280;49531;-34.520;150.798;2023-07-16T11:40:51;102034.81;;;18.98;50.43
63395;BME280;49531;-34.520;150.798;2023-07-16T11:43:19;102040.22;;;18.98;50.39
63395;BME280;49531;-34.520;150.798;2023-07-16T11:45:49;102049.16;;;19.05;50.10
63395;BME280;49531;-34.520;150.798;2023-07-16T11:48:21;102048.09;;;19.06;50.30
63395;BME280;49531;-34.520;150.798;2023-07-16T11:51:03;102044.16;;;19.02;50.12
63395;BME280;49531;-34.520;150.798;2023-07-16T11:53:30;102050.81;;;19.06;50.18
63395;BME280;49531;-34.520;150.798;2023-07-16T11:56:05;102020.53;;;18.84;50.53
63395;BME280;49531;-34.520;150.798;2023-07-16T11:58:35;102052.13;;;18.97;51.37
63395;BME280;49531;-34.520;150.798;2023-07-16T12:01:05;102046.72;;;18.90;50.66
63395;BME280;49531;-34.520;150.798;2023-07-16T12:03:32;102022.84;;;18.81;50.78
63395;BME280;49531;-34.520;150.798;2023-07-16T12:06:02;102031.97;;;18.86;50.78
63395;BME280;49531;-34.520;150.798;2023-07-16T12:08:31;101944.63;;;18.28;50.91
63395;BME280;49531;-34.520;150.798;2023-07-16T12:10:58;102023.72;;;18.75;50.71
63395;BME280;49531;-34.520;150.798;2023-07-16T12:13:26;102005.03;;;18.67;50.49
63395;BME280;49531;-34.520;150.798;2023-07-16T12:15:53;102037.38;;;18.86;50.66
63395;BME280;49531;-34.520;150.798;2023-07-16T12:18:21;102014.78;;;18.74;50.59
63395;BME280;49531;-34.520;150.798;2023-07-16T12:21:01;101989.44;;;18.62;50.60
63395;BME280;49531;-34.520;150.798;2023-07-16T12:23:29;102017.25;;;18.76;50.52
63395;BME280;49531;-34.520;150.798;2023-07-16T12:25:56;102007.47;;;18.75;50.36
63395;BME280;49531;-34.520;150.798;2023-07-16T12:28:23;101977.78;;;18.61;50.25